sensor_id;sensor_type;location;lat;lon;timestamp;temperature;humidity
1381;DHT22;684;48.342;10.096;2023-03-19T00:00:04;11.70;20.40
1381;DHT22;684;48.342;10.096;2023-03-19T00:02:34;11.80;20.00
1381;DHT22;684;48.342;10.096;2023-03-19T00:05:02;11.80;19.90
1381;DHT22;684;48.342;10.096;2023-03-19T00:07:29;11.80;19.70
1381;DHT22;684;48.342;10.096;2023-03-19T00:09:56;11.80;20.00
1381;DHT22;684;48.342;10.096;2023-03-19T00:12:22;11.80;20.50
1381;DHT22;684;48.342;10.096;2023-03-19T00:14:50;11.70;20.40
1381;DHT22;684;48.342;10.096;2023-03-19T00:17:17;11.70;20.20
1381;DHT22;684;48.342;10.096;2023-03-19T00:19:44;11.70;20.20
1381;DHT22;684;48.342;10.096;2023-03-19T00:22:11;11.70;20.00
1381;DHT22;684;48.342;10.096;2023-03-19T00:24:38;11.70;19.80
1381;DHT22;684;48.342;10.096;2023-03-19T00:27:05;11.70;19.80
1381;DHT22;684;48.342;10.096;2023-03-19T00:29:32;11.60;19.90
1381;DHT22;684;48.342;10.096;2023-03-19T00:32:00;11.70;19.60
1381;DHT22;684;48.342;10.096;2023-03-19T00:34:27;11.70;19.40
1381;DHT22;684;48.342;10.096;2023-03-19T00:36:54;11.70;19.70
1381;DHT22;684;48.342;10.096;2023-03-19T00:39:21;11.70;19.70
1381;DHT22;684;48.342;10.096;2023-03-19T00:41:48;11.70;19.60
1381;DHT22;684;48.342;10.096;2023-03-19T00:44:16;11.70;19.40
1381;DHT22;684;48.342;10.096;2023-03-19T00:46:43;11.70;19.50
1381;DHT22;684;48.342;10.096;2023-03-19T00:49:12;11.70;19.20
1381;DHT22;684;48.342;10.096;2023-03-19T00:51:38;11.70;20.10
1381;DHT22;684;48.342;10.096;2023-03-19T00:54:09;11.70;20.30
1381;DHT22;684;48.342;10.096;2023-03-19T00:56:36;11.60;19.70
1381;DHT22;684;48.342;10.096;2023-03-19T00:59:02;11.70;19.60
1381;DHT22;684;48.342;10.096;2023-03-19T01:01:29;11.70;19.60
1381;DHT22;684;48.342;10.096;2023-03-19T01:03:56;11.70;19.60
1381;DHT22;684;48.342;10.096;2023-03-19T01:06:25;11.60;19.60
1381;DHT22;684;48.342;10.096;2023-03-19T01:08:51;11.60;19.60
1381;DHT22;684;48.342;10.096;2023-03-19T01:11:18;11.70;19.60
1381;DHT22;684;48.342;10.096;2023-03-19T01:13:45;11.70;19.90
1381;DHT22;684;48.342;10.096;2023-03-19T01:16:12;11.70;20.00
1381;DHT22;684;48.342;10.096;2023-03-19T01:18:39;11.70;20.00
1381;DHT22;684;48.342;10.096;2023-03-19T01:21:06;11.70;19.90
1381;DHT22;684;48.342;10.096;2023-03-19T01:23:34;11.70;19.70
1381;DHT22;684;48.342;10.096;2023-03-19T01:26:01;11.80;19.60
1381;DHT22;684;48.342;10.096;2023-03-19T01:28:28;11.80;19.60
1381;DHT22;684;48.342;10.096;2023-03-19T01:30:58;11.80;19.50
1381;DHT22;684;48.342;10.096;2023-03-19T01:33:25;11.80;19.20
1381;DHT22;684;48.342;10.096;2023-03-19T01:35:52;11.80;19.30
1381;DHT22;684;48.342;10.096;2023-03-19T01:38:18;11.80;19.60
1381;DHT22;684;48.342;10.096;2023-03-19T01:40:47;11.80;20.00
1381;DHT22;684;48.342;10.096;2023-03-19T01:43:16;11.70;20.00
1381;DHT22;684;48.342;10.096;2023-03-19T01:45:44;11.70;20.60
1381;DHT22;684;48.342;10.096;2023-03-19T01:48:26;11.70;21.10
1381;DHT22;684;48.342;10.096;2023-03-19T01:50:53;11.70;21.10
1381;DHT22;684;48.342;10.096;2023-03-19T01:53:23;11.70;21.10
1381;DHT22;684;48.342;10.096;2023-03-19T01:55:56;11.70;21.20
1381;DHT22;684;48.342;10.096;2023-03-19T01:58:25;11.60;21.60
1381;DHT22;684;48.342;10.096;2023-03-19T02:00:52;11.60;21.80
1381;DHT22;684;48.342;10.096;2023-03-19T02:03:20;11.60;21.70
1381;DHT22;684;48.342;10.096;2023-03-19T02:05:48;11.50;21.80
1381;DHT22;684;48.342;10.096;2023-03-19T02:08:16;11.50;21.90
1381;DHT22;684;48.342;10.096;2023-03-19T02:10:45;11.50;22.20
1381;DHT22;684;48.342;10.096;2023-03-19T02:13:14;11.50;21.90
1381;DHT22;684;48.342;10.096;2023-03-19T02:15:41;11.50;21.90
1381;DHT22;684;48.342;10.096;2023-03-19T02:18:08;11.50;22.00
1381;DHT22;684;48.342;10.096;2023-03-19T02:20:43;11.50;21.80
1381;DHT22;684;48.342;10.096;2023-03-19T02:23:16;11.50;22.30
1381;DHT22;684;48.342;10.096;2023-03-19T02:26:02;11.40;22.50
1381;DHT22;684;48.342;10.096;2023-03-19T02:28:31;11.40;23.30
1381;DHT22;684;48.342;10.096;2023-03-19T02:30:59;11.40;23.40
1381;DHT22;684;48.342;10.096;2023-03-19T02:33:26;11.30;23.50
1381;DHT22;684;48.342;10.096;2023-03-19T02:35:53;11.30;23.80
1381;DHT22;684;48.342;10.096;2023-03-19T02:38:23;11.30;23.80
1381;DHT22;684;48.342;10.096;2023-03-19T02:40:52;11.20;24.00
1381;DHT22;684;48.342;10.096;2023-03-19T02:43:22;11.20;24.30
1381;DHT22;684;48.342;10.096;2023-03-19T02:45:49;11.20;24.50
1381;DHT22;684;48.342;10.096;2023-03-19T02:48:16;11.20;24.60
1381;DHT22;684;48.342;10.096;2023-03-19T02:50:42;11.20;24.40
1381;DHT22;684;48.342;10.096;2023-03-19T02:53:10;11.20;24.30
1381;DHT22;684;48.342;10.096;2023-03-19T02:55:36;11.20;24.30
1381;DHT22;684;48.342;10.096;2023-03-19T02:58:03;11.30;24.00
1381;DHT22;684;48.342;10.096;2023-03-19T03:00:31;11.30;24.20
1381;DHT22;684;48.342;10.096;2023-03-19T03:02:58;11.20;24.00
1381;DHT22;684;48.342;10.096;2023-03-19T03:05:25;11.30;24.00
1381;DHT22;684;48.342;10.096;2023-03-19T03:07:52;11.30;24.00
1381;DHT22;684;48.342;10.096;2023-03-19T03:10:19;11.20;24.00
1381;DHT22;684;48.342;10.096;2023-03-19T03:12:45;11.30;24.20
1381;DHT22;684;48.342;10.096;2023-03-19T03:15:12;11.30;24.60
1381;DHT22;684;48.342;10.096;2023-03-19T03:17:41;11.30;25.20
1381;DHT22;684;48.342;10.096;2023-03-19T03:20:11;11.20;24.50
1381;DHT22;684;48.342;10.096;2023-03-19T03:22:38;11.20;24.40
1381;DHT22;684;48.342;10.096;2023-03-19T03:25:06;11.20;24.60
1381;DHT22;684;48.342;10.096;2023-03-19T03:27:34;11.20;24.50
1381;DHT22;684;48.342;10.096;2023-03-19T03:30:01;11.20;24.40
1381;DHT22;684;48.342;10.096;2023-03-19T03:32:28;11.20;24.40
1381;DHT22;684;48.342;10.096;2023-03-19T03:34:56;11.20;24.30
1381;DHT22;684;48.342;10.096;2023-03-19T03:37:22;11.20;24.00
1381;DHT22;684;48.342;10.096;2023-03-19T03:39:49;11.30;24.10
1381;DHT22;684;48.342;10.096;2023-03-19T03:42:17;11.30;24.00
1381;DHT22;684;48.342;10.096;2023-03-19T03:44:44;11.30;24.00
1381;DHT22;684;48.342;10.096;2023-03-19T03:47:12;11.30;23.80
1381;DHT22;684;48.342;10.096;2023-03-19T03:49:38;11.30;24.40
1381;DHT22;684;48.342;10.096;2023-03-19T03:52:07;11.30;24.60
1381;DHT22;684;48.342;10.096;2023-03-19T03:54:34;11.30;24.50
1381;DHT22;684;48.342;10.096;2023-03-19T03:57:01;11.30;23.90
1381;DHT22;684;48.342;10.096;2023-03-19T03:59:28;11.30;23.70
1381;DHT22;684;48.342;10.096;2023-03-19T04:01:55;11.40;23.50
1381;DHT22;684;48.342;10.096;2023-03-19T04:04:21;11.40;23.50
1381;DHT22;684;48.342;10.096;2023-03-19T04:06:48;11.40;23.20
1381;DHT22;684;48.342;10.096;2023-03-19T04:09:16;11.50;22.90
1381;DHT22;684;48.342;10.096;2023-03-19T04:11:44;11.50;22.80
1381;DHT22;684;48.342;10.096;2023-03-19T04:14:10;11.50;22.80
1381;DHT22;684;48.342;10.096;2023-03-19T04:16:37;11.50;22.80
1381;DHT22;684;48.342;10.096;2023-03-19T04:19:04;11.60;22.40
1381;DHT22;684;48.342;10.096;2023-03-19T04:21:32;11.60;22.40
1381;DHT22;684;48.342;10.096;2023-03-19T04:23:59;11.70;22.50
1381;DHT22;684;48.342;10.096;2023-03-19T04:26:27;11.60;22.70
1381;DHT22;684;48.342;10.096;2023-03-19T04:28:54;11.60;22.80
1381;DHT22;684;48.342;10.096;2023-03-19T04:31:21;11.70;22.80
1381;DHT22;684;48.342;10.096;2023-03-19T04:33:48;11.80;22.90
1381;DHT22;684;48.342;10.096;2023-03-19T04:36:15;11.80;23.20
1381;DHT22;684;48.342;10.096;2023-03-19T04:38:42;11.90;23.90
1381;DHT22;684;48.342;10.096;2023-03-19T04:41:09;11.90;24.80
1381;DHT22;684;48.342;10.096;2023-03-19T04:43:37;12.00;25.30
1381;DHT22;684;48.342;10.096;2023-03-19T04:46:04;12.00;25.70
1381;DHT22;684;48.342;10.096;2023-03-19T04:48:32;12.00;26.60
1381;DHT22;684;48.342;10.096;2023-03-19T04:51:00;12.10;26.90
1381;DHT22;684;48.342;10.096;2023-03-19T04:53:27;12.00;27.20
1381;DHT22;684;48.342;10.096;2023-03-19T04:55:54;12.00;27.90
1381;DHT22;684;48.342;10.096;2023-03-19T04:58:21;11.90;29.50
1381;DHT22;684;48.342;10.096;2023-03-19T05:00:50;11.90;29.90
1381;DHT22;684;48.342;10.096;2023-03-19T05:03:16;11.90;30.00
1381;DHT22;684;48.342;10.096;2023-03-19T05:05:43;11.80;30.20
1381;DHT22;684;48.342;10.096;2023-03-19T05:08:10;11.80;30.60
1381;DHT22;684;48.342;10.096;2023-03-19T05:10:38;11.90;30.80
1381;DHT22;684;48.342;10.096;2023-03-19T05:13:05;11.90;31.10
1381;DHT22;684;48.342;10.096;2023-03-19T05:15:32;11.90;31.10
1381;DHT22;684;48.342;10.096;2023-03-19T05:18:01;11.90;31.60
1381;DHT22;684;48.342;10.096;2023-03-19T05:20:27;11.90;31.50
1381;DHT22;684;48.342;10.096;2023-03-19T05:22:54;11.90;31.60
1381;DHT22;684;48.342;10.096;2023-03-19T05:25:21;11.90;31.80
1381;DHT22;684;48.342;10.096;2023-03-19T05:27:47;11.90;31.80
1381;DHT22;684;48.342;10.096;2023-03-19T05:30:14;11.90;31.90
1381;DHT22;684;48.342;10.096;2023-03-19T05:32:42;11.90;32.00
1381;DHT22;684;48.342;10.096;2023-03-19T05:35:12;11.90;31.70
1381;DHT22;684;48.342;10.096;2023-03-19T05:37:39;11.90;31.70
1381;DHT22;684;48.342;10.096;2023-03-19T05:40:07;11.90;31.40
1381;DHT22;684;48.342;10.096;2023-03-19T05:42:34;11.80;31.10
1381;DHT22;684;48.342;10.096;2023-03-19T05:45:01;11.80;31.10
1381;DHT22;684;48.342;10.096;2023-03-19T05:47:29;11.90;31.20
1381;DHT22;684;48.342;10.096;2023-03-19T05:49:55;11.80;30.90
1381;DHT22;684;48.342;10.096;2023-03-19T05:52:24;11.80;31.20
1381;DHT22;684;48.342;10.096;2023-03-19T05:54:50;11.80;31.30
1381;DHT22;684;48.342;10.096;2023-03-19T05:57:17;11.80;31.20
1381;DHT22;684;48.342;10.096;2023-03-19T05:59:44;11.80;31.20
1381;DHT22;684;48.342;10.096;2023-03-19T06:02:11;11.80;31.80
1381;DHT22;684;48.342;10.096;2023-03-19T06:04:38;11.70;32.10
1381;DHT22;684;48.342;10.096;2023-03-19T06:07:05;11.70;32.50
1381;DHT22;684;48.342;10.096;2023-03-19T06:09:33;11.70;32.20
1381;DHT22;684;48.342;10.096;2023-03-19T06:12:00;11.70;32.20
1381;DHT22;684;48.342;10.096;2023-03-19T06:14:27;11.70;32.40
1381;DHT22;684;48.342;10.096;2023-03-19T06:16:53;11.70;32.20
1381;DHT22;684;48.342;10.096;2023-03-19T06:19:20;11.70;31.80
1381;DHT22;684;48.342;10.096;2023-03-19T06:21:47;11.80;31.70
1381;DHT22;684;48.342;10.096;2023-03-19T06:24:14;11.70;32.40
1381;DHT22;684;48.342;10.096;2023-03-19T06:26:42;11.60;32.80
1381;DHT22;684;48.342;10.096;2023-03-19T06:29:08;11.60;32.90
1381;DHT22;684;48.342;10.096;2023-03-19T06:31:35;11.60;32.80
1381;DHT22;684;48.342;10.096;2023-03-19T06:34:03;11.60;33.00
1381;DHT22;684;48.342;10.096;2023-03-19T06:36:30;11.60;33.10
1381;DHT22;684;48.342;10.096;2023-03-19T06:38:57;11.70;33.30
1381;DHT22;684;48.342;10.096;2023-03-19T06:41:24;11.60;33.80
1381;DHT22;684;48.342;10.096;2023-03-19T06:43:52;11.60;33.80
1381;DHT22;684;48.342;10.096;2023-03-19T06:46:19;11.60;34.00
1381;DHT22;684;48.342;10.096;2023-03-19T06:48:45;11.60;33.90
1381;DHT22;684;48.342;10.096;2023-03-19T06:51:12;11.70;33.30
1381;DHT22;684;48.342;10.096;2023-03-19T06:53:39;11.70;32.80
1381;DHT22;684;48.342;10.096;2023-03-19T06:56:05;11.80;32.60
1381;DHT22;684;48.342;10.096;2023-03-19T06:58:32;11.90;32.50
1381;DHT22;684;48.342;10.096;2023-03-19T07:01:01;12.00;32.30
1381;DHT22;684;48.342;10.096;2023-03-19T07:03:28;12.10;32.70
1381;DHT22;684;48.342;10.096;2023-03-19T07:05:55;12.20;32.60
1381;DHT22;684;48.342;10.096;2023-03-19T07:08:22;12.30;32.50
1381;DHT22;684;48.342;10.096;2023-03-19T07:10:52;12.50;32.50
1381;DHT22;684;48.342;10.096;2023-03-19T07:13:19;12.60;31.80
1381;DHT22;684;48.342;10.096;2023-03-19T07:15:46;12.80;32.40
1381;DHT22;684;48.342;10.096;2023-03-19T07:18:14;12.80;32.20
1381;DHT22;684;48.342;10.096;2023-03-19T07:20:41;12.90;32.00
1381;DHT22;684;48.342;10.096;2023-03-19T07:23:07;13.00;31.70
1381;DHT22;684;48.342;10.096;2023-03-19T07:25:34;13.10;30.60
1381;DHT22;684;48.342;10.096;2023-03-19T07:28:01;13.20;29.50
1381;DHT22;684;48.342;10.096;2023-03-19T07:30:28;13.30;29.20
1381;DHT22;684;48.342;10.096;2023-03-19T07:32:55;13.40;29.10
1381;DHT22;684;48.342;10.096;2023-03-19T07:35:23;13.60;28.70
1381;DHT22;684;48.342;10.096;2023-03-19T07:37:49;13.80;28.30
1381;DHT22;684;48.342;10.096;2023-03-19T07:40:16;14.00;27.40
1381;DHT22;684;48.342;10.096;2023-03-19T07:42:43;14.10;26.60
1381;DHT22;684;48.342;10.096;2023-03-19T07:45:10;14.10;25.70
1381;DHT22;684;48.342;10.096;2023-03-19T07:47:37;14.10;25.60
1381;DHT22;684;48.342;10.096;2023-03-19T07:50:05;14.00;25.60
1381;DHT22;684;48.342;10.096;2023-03-19T07:52:33;13.90;25.80
1381;DHT22;684;48.342;10.096;2023-03-19T07:55:00;13.80;26.00
1381;DHT22;684;48.342;10.096;2023-03-19T07:57:27;13.70;26.50
1381;DHT22;684;48.342;10.096;2023-03-19T07:59:54;13.60;26.70
1381;DHT22;684;48.342;10.096;2023-03-19T08:02:21;13.50;27.10
1381;DHT22;684;48.342;10.096;2023-03-19T08:04:47;13.40;27.30
1381;DHT22;684;48.342;10.096;2023-03-19T08:07:14;13.40;27.30
1381;DHT22;684;48.342;10.096;2023-03-19T08:09:42;13.40;27.60
1381;DHT22;684;48.342;10.096;2023-03-19T08:12:09;13.30;27.80
1381;DHT22;684;48.342;10.096;2023-03-19T08:14:36;13.30;27.80
1381;DHT22;684;48.342;10.096;2023-03-19T08:17:03;13.40;27.70
1381;DHT22;684;48.342;10.096;2023-03-19T08:19:30;13.40;27.40
1381;DHT22;684;48.342;10.096;2023-03-19T08:21:57;13.40;27.30
1381;DHT22;684;48.342;10.096;2023-03-19T08:24:23;13.30;27.60
1381;DHT22;684;48.342;10.096;2023-03-19T08:26:51;13.30;27.20
1381;DHT22;684;48.342;10.096;2023-03-19T08:29:18;13.40;27.20
1381;DHT22;684;48.342;10.096;2023-03-19T08:31:45;13.50;27.30
1381;DHT22;684;48.342;10.096;2023-03-19T08:34:12;13.60;26.90
1381;DHT22;684;48.342;10.096;2023-03-19T08:36:39;13.60;26.50
1381;DHT22;684;48.342;10.096;2023-03-19T08:39:06;13.70;26.60
1381;DHT22;684;48.342;10.096;2023-03-19T08:41:33;13.80;26.10
1381;DHT22;684;48.342;10.096;2023-03-19T08:44:01;13.90;25.20
1381;DHT22;684;48.342;10.096;2023-03-19T08:46:28;13.90;24.50
1381;DHT22;684;48.342;10.096;2023-03-19T08:48:55;14.00;23.90
1381;DHT22;684;48.342;10.096;2023-03-19T08:51:21;14.00;23.80
1381;DHT22;684;48.342;10.096;2023-03-19T08:53:50;14.00;23.60
1381;DHT22;684;48.342;10.096;2023-03-19T08:56:17;14.10;23.70
1381;DHT22;684;48.342;10.096;2023-03-19T08:58:44;14.10;23.10
1381;DHT22;684;48.342;10.096;2023-03-19T09:01:13;14.20;22.60
1381;DHT22;684;48.342;10.096;2023-03-19T09:03:41;14.30;22.40
1381;DHT22;684;48.342;10.096;2023-03-19T09:06:09;14.40;22.00
1381;DHT22;684;48.342;10.096;2023-03-19T09:08:37;14.60;21.80
1381;DHT22;684;48.342;10.096;2023-03-19T09:11:04;14.70;21.30
1381;DHT22;684;48.342;10.096;2023-03-19T09:13:31;14.80;21.20
1381;DHT22;684;48.342;10.096;2023-03-19T09:15:58;15.00;21.00
1381;DHT22;684;48.342;10.096;2023-03-19T09:18:26;15.10;20.60
1381;DHT22;684;48.342;10.096;2023-03-19T09:20:53;15.30;20.10
1381;DHT22;684;48.342;10.096;2023-03-19T09:23:20;15.60;19.10
1381;DHT22;684;48.342;10.096;2023-03-19T09:25:47;16.10;18.20
1381;DHT22;684;48.342;10.096;2023-03-19T09:28:14;16.60;17.10
1381;DHT22;684;48.342;10.096;2023-03-19T09:30:41;17.10;15.60
1381;DHT22;684;48.342;10.096;2023-03-19T09:33:10;17.60;14.40
1381;DHT22;684;48.342;10.096;2023-03-19T09:35:38;18.30;13.30
1381;DHT22;684;48.342;10.096;2023-03-19T09:38:05;19.10;11.80
1381;DHT22;684;48.342;10.096;2023-03-19T09:40:36;20.50;10.70
1381;DHT22;684;48.342;10.096;2023-03-19T09:43:16;22.20;7.20
1381;DHT22;684;48.342;10.096;2023-03-19T09:45:46;24.00;3.20
1381;DHT22;684;48.342;10.096;2023-03-19T09:48:18;25.90;1.00
1381;DHT22;684;48.342;10.096;2023-03-19T09:50:48;27.40;1.00
1381;DHT22;684;48.342;10.096;2023-03-19T09:53:22;29.10;1.00
1381;DHT22;684;48.342;10.096;2023-03-19T09:55:51;30.60;1.00
1381;DHT22;684;48.342;10.096;2023-03-19T09:58:20;30.90;1.00
1381;DHT22;684;48.342;10.096;2023-03-19T10:00:49;31.10;1.00
1381;DHT22;684;48.342;10.096;2023-03-19T10:03:30;32.30;1.00
1381;DHT22;684;48.342;10.096;2023-03-19T10:06:12;33.70;1.00
1381;DHT22;684;48.342;10.096;2023-03-19T10:08:54;34.30;1.00
1381;DHT22;684;48.342;10.096;2023-03-19T10:11:36;34.80;1.00
1381;DHT22;684;48.342;10.096;2023-03-19T10:14:32;35.30;1.00
1381;DHT22;684;48.342;10.096;2023-03-19T10:17:02;35.90;1.00
1381;DHT22;684;48.342;10.096;2023-03-19T10:19:37;36.80;1.00
1381;DHT22;684;48.342;10.096;2023-03-19T10:22:10;37.80;1.00
1381;DHT22;684;48.342;10.096;2023-03-19T10:24:39;37.60;1.00
1381;DHT22;684;48.342;10.096;2023-03-19T10:27:12;37.80;1.00
1381;DHT22;684;48.342;10.096;2023-03-19T10:29:38;38.00;1.00
1381;DHT22;684;48.342;10.096;2023-03-19T10:32:14;38.40;1.00
1381;DHT22;684;48.342;10.096;2023-03-19T10:34:43;38.60;1.00
1381;DHT22;684;48.342;10.096;2023-03-19T10:37:16;38.70;1.00
1381;DHT22;684;48.342;10.096;2023-03-19T10:39:46;38.80;1.00
1381;DHT22;684;48.342;10.096;2023-03-19T10:42:41;38.60;1.00
1381;DHT22;684;48.342;10.096;2023-03-19T10:45:19;38.80;1.00
1381;DHT22;684;48.342;10.096;2023-03-19T10:47:46;38.80;1.00
1381;DHT22;684;48.342;10.096;2023-03-19T10:50:15;38.50;1.00
1381;DHT22;684;48.342;10.096;2023-03-19T10:52:48;37.70;1.00
1381;DHT22;684;48.342;10.096;2023-03-19T10:55:17;37.10;1.00
1381;DHT22;684;48.342;10.096;2023-03-19T10:57:45;36.30;1.00
1381;DHT22;684;48.342;10.096;2023-03-19T11:00:16;35.30;1.00
1381;DHT22;684;48.342;10.096;2023-03-19T11:02:48;35.40;1.00
1381;DHT22;684;48.342;10.096;2023-03-19T11:05:25;35.60;1.00
1381;DHT22;684;48.342;10.096;2023-03-19T11:07:57;34.90;1.00
1381;DHT22;684;48.342;10.096;2023-03-19T11:10:25;34.20;1.00
1381;DHT22;684;48.342;10.096;2023-03-19T11:12:55;32.80;1.00
1381;DHT22;684;48.342;10.096;2023-03-19T11:15:26;31.30;1.00
1381;DHT22;684;48.342;10.096;2023-03-19T11:17:57;29.80;1.00
1381;DHT22;684;48.342;10.096;2023-03-19T11:20:28;28.60;1.00
1381;DHT22;684;48.342;10.096;2023-03-19T11:22:58;27.60;1.00
1381;DHT22;684;48.342;10.096;2023-03-19T11:25:28;26.60;1.00
1381;DHT22;684;48.342;10.096;2023-03-19T11:28:00;26.00;1.00
1381;DHT22;684;48.342;10.096;2023-03-19T11:30:32;25.60;1.00
1381;DHT22;684;48.342;10.096;2023-03-19T11:33:15;25.30;1.00
1381;DHT22;684;48.342;10.096;2023-03-19T11:35:48;25.30;1.00
1381;DHT22;684;48.342;10.096;2023-03-19T11:38:23;25.20;1.00
1381;DHT22;684;48.342;10.096;2023-03-19T11:40:59;25.20;1.00
1381;DHT22;684;48.342;10.096;2023-03-19T11:43:39;25.00;1.00
1381;DHT22;684;48.342;10.096;2023-03-19T11:46:13;24.90;1.00
1381;DHT22;684;48.342;10.096;2023-03-19T11:48:54;24.90;1.00
1381;DHT22;684;48.342;10.096;2023-03-19T11:51:31;24.90;1.00
1381;DHT22;684;48.342;10.096;2023-03-19T11:54:04;24.80;1.00
1381;DHT22;684;48.342;10.096;2023-03-19T11:59:56;24.30;1.00
1381;DHT22;684;48.342;10.096;2023-03-19T12:02:47;24.00;1.00
1381;DHT22;684;48.342;10.096;2023-03-19T12:05:22;23.80;1.00
1381;DHT22;684;48.342;10.096;2023-03-19T12:08:06;23.70;1.00
1381;DHT22;684;48.342;10.096;2023-03-19T12:10:55;23.60;1.00
1381;DHT22;684;48.342;10.096;2023-03-19T12:13:33;23.40;1.00
1381;DHT22;684;48.342;10.096;2023-03-19T12:16:09;23.30;1.00
1381;DHT22;684;48.342;10.096;2023-03-19T12:19:03;23.20;1.00
1381;DHT22;684;48.342;10.096;2023-03-19T12:21:42;23.00;1.00
1381;DHT22;684;48.342;10.096;2023-03-19T12:24:18;22.90;1.00
1381;DHT22;684;48.342;10.096;2023-03-19T12:26:58;22.80;1.00
1381;DHT22;684;48.342;10.096;2023-03-19T12:29:32;22.70;1.00
1381;DHT22;684;48.342;10.096;2023-03-19T12:32:15;22.60;1.00
1381;DHT22;684;48.342;10.096;2023-03-19T12:34:48;22.50;1.00
1381;DHT22;684;48.342;10.096;2023-03-19T12:37:19;22.40;1.00
1381;DHT22;684;48.342;10.096;2023-03-19T12:40:01;22.30;1.00
1381;DHT22;684;48.342;10.096;2023-03-19T12:42:36;22.30;1.00
1381;DHT22;684;48.342;10.096;2023-03-19T12:45:15;22.20;1.00
1381;DHT22;684;48.342;10.096;2023-03-19T12:47:45;22.10;1.00
1381;DHT22;684;48.342;10.096;2023-03-19T12:50:15;22.20;1.00
1381;DHT22;684;48.342;10.096;2023-03-19T12:52:43;22.10;1.00
1381;DHT22;684;48.342;10.096;2023-03-19T12:55:17;22.10;1.00
1381;DHT22;684;48.342;10.096;2023-03-19T12:57:49;22.00;1.00
1381;DHT22;684;48.342;10.096;2023-03-19T13:00:27;21.80;1.00
1381;DHT22;684;48.342;10.096;2023-03-19T13:03:00;21.50;1.00
1381;DHT22;684;48.342;10.096;2023-03-19T13:05:33;21.30;1.00
1381;DHT22;684;48.342;10.096;2023-03-19T13:08:05;21.10;1.00
1381;DHT22;684;48.342;10.096;2023-03-19T13:10:36;20.90;1.00
1381;DHT22;684;48.342;10.096;2023-03-19T13:13:20;20.80;1.60
1381;DHT22;684;48.342;10.096;2023-03-19T13:15:52;20.70;1.80
1381;DHT22;684;48.342;10.096;2023-03-19T13:18:31;20.70;2.60
1381;DHT22;684;48.342;10.096;2023-03-19T13:21:13;20.60;1.20
1381;DHT22;684;48.342;10.096;2023-03-19T13:23:43;20.50;1.40
1381;DHT22;684;48.342;10.096;2023-03-19T13:26:12;20.30;1.90
1381;DHT22;684;48.342;10.096;2023-03-19T13:28:58;20.20;2.20
1381;DHT22;684;48.342;10.096;2023-03-19T13:31:26;20.00;2.50
1381;DHT22;684;48.342;10.096;2023-03-19T13:34:00;19.80;3.00
1381;DHT22;684;48.342;10.096;2023-03-19T13:36:28;19.70;3.90
1381;DHT22;684;48.342;10.096;2023-03-19T13:38:56;19.60;4.00
1381;DHT22;684;48.342;10.096;2023-03-19T13:44:34;19.30;5.20
1381;DHT22;684;48.342;10.096;2023-03-19T13:47:01;19.10;4.00
1381;DHT22;684;48.342;10.096;2023-03-19T13:49:33;19.00;4.70
1381;DHT22;684;48.342;10.096;2023-03-19T13:52:44;18.90;4.80
1381;DHT22;684;48.342;10.096;2023-03-19T13:55:43;18.70;5.20
1381;DHT22;684;48.342;10.096;2023-03-19T13:58:18;18.70;5.80
1381;DHT22;684;48.342;10.096;2023-03-19T14:01:00;18.50;5.00
1381;DHT22;684;48.342;10.096;2023-03-19T14:03:29;18.40;5.30
1381;DHT22;684;48.342;10.096;2023-03-19T14:05:57;18.40;5.70
1381;DHT22;684;48.342;10.096;2023-03-19T14:08:26;18.30;5.80
1381;DHT22;684;48.342;10.096;2023-03-19T14:10:57;18.10;5.40
1381;DHT22;684;48.342;10.096;2023-03-19T14:13:29;18.00;6.10
1381;DHT22;684;48.342;10.096;2023-03-19T14:16:05;18.00;6.10
1381;DHT22;684;48.342;10.096;2023-03-19T14:18:38;18.00;6.00
1381;DHT22;684;48.342;10.096;2023-03-19T14:21:08;18.00;6.70
1381;DHT22;684;48.342;10.096;2023-03-19T14:23:38;17.90;7.00
1381;DHT22;684;48.342;10.096;2023-03-19T14:26:10;17.90;6.60
1381;DHT22;684;48.342;10.096;2023-03-19T14:28:45;17.90;6.20
1381;DHT22;684;48.342;10.096;2023-03-19T14:31:20;17.90;6.10
1381;DHT22;684;48.342;10.096;2023-03-19T14:33:51;17.80;6.90
1381;DHT22;684;48.342;10.096;2023-03-19T14:36:19;17.70;6.70
1381;DHT22;684;48.342;10.096;2023-03-19T14:38:49;17.70;7.90
1381;DHT22;684;48.342;10.096;2023-03-19T14:41:20;17.70;8.10
1381;DHT22;684;48.342;10.096;2023-03-19T14:44:15;17.70;7.30
1381;DHT22;684;48.342;10.096;2023-03-19T14:47:02;17.70;7.50
1381;DHT22;684;48.342;10.096;2023-03-19T14:49:51;17.70;7.40
1381;DHT22;684;48.342;10.096;2023-03-19T14:52:23;17.70;7.50
1381;DHT22;684;48.342;10.096;2023-03-19T14:54:53;17.80;7.10
1381;DHT22;684;48.342;10.096;2023-03-19T14:57:21;17.80;6.70
1381;DHT22;684;48.342;10.096;2023-03-19T14:59:51;17.80;6.80
1381;DHT22;684;48.342;10.096;2023-03-19T15:02:32;17.80;6.90
1381;DHT22;684;48.342;10.096;2023-03-19T15:05:00;17.70;7.00
1381;DHT22;684;48.342;10.096;2023-03-19T15:07:30;17.60;6.90
1381;DHT22;684;48.342;10.096;2023-03-19T15:10:00;17.50;6.60
1381;DHT22;684;48.342;10.096;2023-03-19T15:12:39;17.50;6.90
1381;DHT22;684;48.342;10.096;2023-03-19T15:15:29;17.40;6.80
1381;DHT22;684;48.342;10.096;2023-03-19T15:18:01;17.40;7.10
1381;DHT22;684;48.342;10.096;2023-03-19T15:20:32;17.30;7.30
1381;DHT22;684;48.342;10.096;2023-03-19T15:23:01;17.40;7.40
1381;DHT22;684;48.342;10.096;2023-03-19T15:25:29;17.40;7.40
1381;DHT22;684;48.342;10.096;2023-03-19T15:28:10;17.40;7.80
1381;DHT22;684;48.342;10.096;2023-03-19T15:30:37;17.50;8.10
1381;DHT22;684;48.342;10.096;2023-03-19T15:33:17;17.50;8.00
1381;DHT22;684;48.342;10.096;2023-03-19T15:35:47;17.60;8.10
1381;DHT22;684;48.342;10.096;2023-03-19T15:38:16;17.60;8.10
1381;DHT22;684;48.342;10.096;2023-03-19T15:40:43;17.60;8.10
1381;DHT22;684;48.342;10.096;2023-03-19T15:43:11;17.70;7.90
1381;DHT22;684;48.342;10.096;2023-03-19T15:45:40;17.70;8.50
1381;DHT22;684;48.342;10.096;2023-03-19T15:48:17;17.70;8.90
1381;DHT22;684;48.342;10.096;2023-03-19T15:50:49;17.60;9.00
1381;DHT22;684;48.342;10.096;2023-03-19T15:53:18;17.50;9.00
1381;DHT22;684;48.342;10.096;2023-03-19T15:55:47;17.30;9.30
1381;DHT22;684;48.342;10.096;2023-03-19T15:58:18;17.20;9.90
1381;DHT22;684;48.342;10.096;2023-03-19T16:00:46;17.10;10.40
1381;DHT22;684;48.342;10.096;2023-03-19T16:03:18;16.90;12.80
1381;DHT22;684;48.342;10.096;2023-03-19T16:05:50;16.60;14.90
1381;DHT22;684;48.342;10.096;2023-03-19T16:08:19;16.50;15.90
1381;DHT22;684;48.342;10.096;2023-03-19T16:10:47;16.30;15.50
1381;DHT22;684;48.342;10.096;2023-03-19T16:13:36;16.10;15.40
1381;DHT22;684;48.342;10.096;2023-03-19T16:16:05;15.90;15.90
1381;DHT22;684;48.342;10.096;2023-03-19T16:18:47;15.70;17.10
1381;DHT22;684;48.342;10.096;2023-03-19T16:21:18;15.60;17.50
1381;DHT22;684;48.342;10.096;2023-03-19T16:23:51;15.50;17.40
1381;DHT22;684;48.342;10.096;2023-03-19T16:26:21;15.40;17.60
1381;DHT22;684;48.342;10.096;2023-03-19T16:29:02;15.40;18.00
1381;DHT22;684;48.342;10.096;2023-03-19T16:31:31;15.30;17.90